Flight Track Log - Related Links

Times and Time Zones

All times are in EDT time to prevent confusion due to time zone crossing. See the GLA41E flight status page for this flight to view local times or setup timezone preferences in your user account.

Time Position Orientation Groundspeed Altitude Reporting Facility
EDT Latitude Longitude Course Direction KTS MPH feet Rate Location/Type
Mon 07:31:48 AM 40.7631 -99.0228 282° West 256 295 3,200  Level Denver Center
Mon 07:32:48 AM 40.7636 -99.0958 271° West 209 241 4,600 1,345 Climbing Denver Center
Mon 07:33:44 AM 40.7617 -99.1767 268° West 213 245 5,800 1,282 Climbing Minneapolis Center
Mon 07:34:45 AM 40.7664 -99.2581 274° West 217 250 7,100 1,240 Climbing Minneapolis Center
Mon 07:35:45 AM 40.7744 -99.3400 277° West 221 254 8,300 1,190 Climbing Minneapolis Center
Mon 07:36:46 AM 40.7883 -99.4225 283° West 224 258 9,500 1,113 Climbing Minneapolis Center
Mon 07:37:00 AM 40.7999 -99.4492 282° West  Level FlightAware Approximate
Mon 07:37:49 AM 40.8072 -99.5061 287° West 234 269 10,600  Level Denver Center
Mon 07:38:49 AM 40.8258 -99.5925 286° West 241 277 11,700 992 Climbing Denver Center
Mon 07:39:50 AM 40.8317 -99.6817 275° West 245 282 12,600 992 Climbing Denver Center
Mon 07:40:50 AM 40.8267 -99.7725 266° West 248 285 13,700 1,050 Climbing Denver Center
Mon 07:41:50 AM 40.8250 -99.8664 269° West 248 285 14,700 900 Climbing Denver Center
Mon 07:42:50 AM 40.8225 -99.9519 268° West 246 283 15,500 850 Climbing Denver Center
Mon 07:43:50 AM 40.8200 -100.0561 268° West 252 290 16,400 744 Climbing Denver Center
Mon 07:44:51 AM 40.8167 -100.1464 267° West 257 296 17,000 694 Climbing Denver Center
Mon 07:45:51 AM 40.8147 -100.2361 268° West 257 296 17,800 700 Climbing Denver Center
Mon 07:46:51 AM 40.8139 -100.3422 269° West 258 297 18,400 600 Climbing Denver Center
Mon 07:47:51 AM 40.8122 -100.4325 269° West 257 296 19,000 595 Climbing Denver Center
Mon 07:48:52 AM 40.8106 -100.5233 269° West 258 297 19,600 496 Climbing Denver Center
Mon 07:49:52 AM 40.8078 -100.6144 268° West 259 298 20,000 200 Climbing Denver Center
Mon 07:50:52 AM 40.8033 -100.7167 267° West 269 310 20,000  Level Denver Center
Mon 07:51:52 AM 40.7975 -100.8350 266° West 283 326 20,000  Level Denver Center
Mon 07:52:53 AM 40.7942 -100.9319 267° West 280 322 20,000  Level Denver Center
Mon 07:53:53 AM 40.7908 -101.0289 267° West 276 318 20,000  Level Denver Center
Mon 07:54:53 AM 40.7869 -101.1247 267° West 275 316 20,000  Level Denver Center
Mon 07:55:54 AM 40.7831 -101.2358 267° West 273 314 20,000  Level Denver Center
Mon 07:57:00 AM 40.7659 -101.3431 258° West  Level FlightAware Approximate
Mon 07:58:54 AM 40.7731 -101.5381 258° West 272 313 20,000  Level Denver Center
Mon 07:59:55 AM 40.7664 -101.6322 265° West 271 312 20,000  Level Denver Center
Mon 08:00:55 AM 40.7486 -101.7244 256° West 273 314 20,000  Level Denver Center
Mon 08:01:55 AM 40.7319 -101.8156 256° West 269 310 20,000  Level Denver Center
Mon 08:02:56 AM 40.7108 -101.9228 255° West 271 312 20,000  Level Denver Center
Mon 08:03:56 AM 40.6953 -102.0144 257° West 269 310 20,000  Level Denver Center
Mon 08:04:00 AM 40.6545 -102.0244 258° West  Level FlightAware Approximate
Mon 08:05:00 AM 40.6629 -102.1116 246° West  Level FlightAware Approximate
Mon 08:05:57 AM 40.6553 -102.2128 246° West 270 311 20,000  Level Denver Center
Mon 08:06:57 AM 40.6383 -102.3036 256° West 268 308 20,000  Level Denver Center
Mon 08:07:58 AM 40.6197 -102.3969 255° West 273 314 20,000  Level Denver Center
Mon 08:08:58 AM 40.6031 -102.4883 257° West 270 311 20,000  Level Denver Center
Mon 08:09:59 AM 40.5839 -102.5967 257° West 272 313 20,000  Level Denver Center
Mon 08:10:59 AM 40.5675 -102.6900 257° West 269 310 20,000  Level Denver Center
Mon 08:12:00 AM 40.5508 -102.7886 257° West 271 312 20,000  Level Denver Center
Mon 08:13:00 AM 40.5337 -102.8853 257° West  Level FlightAware Approximate
Mon 08:14:01 AM 40.5169 -102.9825 257° West 271 312 20,000  Level Denver Center
Mon 08:15:01 AM 40.4983 -103.0814 256° West 274 315 19,900 -298 Descending Denver Center
Mon 08:16:02 AM 40.4797 -103.1828 256° West 285 328 19,400 -446 Descending Denver Center
Mon 08:17:02 AM 40.4592 -103.2864 255° West 290 334 19,000 -446 Descending Denver Center
Mon 08:18:03 AM 40.4403 -103.3928 257° West 296 341 18,500 -541 Descending Denver Center
Mon 08:19:04 AM 40.4208 -103.5003 257° West 300 345 17,900 -793 Descending Denver Center
Mon 08:20:04 AM 40.3983 -103.6058 254° West 299 344 16,900 -1,190 Descending Denver Center
Mon 08:21:05 AM 40.3783 -103.7139 256° West 302 348 15,500 -1,537 Descending Denver Center
Mon 08:22:05 AM 40.3572 -103.8256 256° West 312 359 13,800 -1,240 Descending Denver Center
Mon 08:23:06 AM 40.3361 -103.9322 255° West 304 350 13,000 -393 Descending Denver Center
Mon 08:24:07 AM 40.3097 -104.0281 250° West 283 326 13,000 -470 Level Denver Center
Mon 08:25:52 AM 40.2667 -104.2000 252° West 293 337 11,700 -694 Descending Denver TRACON
Mon 08:26:08 AM 40.2586 -104.2361 254° West 293 337 11,600 -545 Descending Denver Center
Mon 08:27:09 AM 40.2314 -104.3358 250° West 293 337 11,000 -694 Descending Denver Center
Mon 08:28:09 AM 40.1950 -104.4314 244° Southwest 294 338 10,200 -744 Descending Denver Center
Mon 08:29:10 AM 40.1514 -104.5181 237° Southwest 287 330 9,500 -1,148 Descending Denver Center
Mon 08:30:04 AM 40.1000 -104.5833 224° Southwest 287 330 8,000 -1,211 Descending Denver TRACON
Mon 08:31:04 AM 40.0333 -104.6333 210° Southwest 241 277 7,200 -656 Descending Denver TRACON
Mon 08:32:12 AM 39.9767 -104.6792 212° Southwest 212 244 6,600 -512 Descending Denver Center
Mon 08:33:13 AM 39.9344 -104.6867 188° South 157 181 6,100 -590 Descending Denver Center
Mon 08:34:14 AM 39.8975 -104.6869 180° South 132 152 5,400 -689 Descending Denver Center
Mon 08:36:00 AM 39.8617 -104.6732 229° Southwest  Level Estimated
Mon 08:43:00 AM 39.8617 -104.6732 229° Southwest  Level Estimated
Mon 08:44:00 AM 39.8617 -104.6732 229° Southwest  Level Estimated
Mon 08:45:00 AM 39.8617 -104.6732 229° Southwest  Level Estimated

Login

Don't have an account? Register now (free) for customized features, flight alerts, and more!